createdAt,value
2022-08-28T00:02:03.519Z,100120.31
2022-08-28T00:04:30.946Z,100112.97
2022-08-28T00:06:58.668Z,100097.88
2022-08-28T00:09:26.568Z,100112.91
2022-08-28T00:11:56.934Z,100130.06
2022-08-28T00:14:25.876Z,100120.56
2022-08-28T00:16:53.248Z,100114.09
2022-08-28T00:19:22.944Z,100110.41
2022-08-28T00:21:51.161Z,100128.31
2022-08-28T00:24:18.692Z,100120.19
2022-08-28T00:27:04.868Z,100129.56
2022-08-28T00:29:32.930Z,100128.88
2022-08-28T00:32:01.114Z,100125.56
2022-08-28T00:34:33.356Z,100127.72
2022-08-28T00:37:01.795Z,100133.41
2022-08-28T00:39:29.563Z,100137.50
2022-08-28T00:41:58.004Z,100130.09
2022-08-28T00:44:28.876Z,100124.59
2022-08-28T00:46:59.445Z,100136.81
2022-08-28T00:49:34.133Z,100134.16
2022-08-28T00:52:12.661Z,100137.38
2022-08-28T00:54:58.426Z,100133.78
2022-08-28T00:57:38.959Z,100129.66
2022-08-28T01:00:13.276Z,100141.88
2022-08-28T01:02:42.121Z,100127.94
2022-08-28T01:05:10.187Z,100132.41
2022-08-28T01:07:38.607Z,100123.03
2022-08-28T01:10:10.398Z,100127.53
2022-08-28T01:12:38.297Z,100128.75
2022-08-28T01:15:13.968Z,100131.06
2022-08-28T01:17:47.830Z,100131.19
2022-08-28T01:20:19.456Z,100130.00
2022-08-28T01:23:05.314Z,100130.59
2022-08-28T01:25:35.401Z,100134.69
2022-08-28T01:28:05.954Z,100132.25
2022-08-28T01:30:34.207Z,100133.53
2022-08-28T01:33:01.664Z,100128.69
2022-08-28T01:35:34.615Z,100128.25
2022-08-28T01:38:02.241Z,100121.66
2022-08-28T01:40:35.215Z,100121.78
2022-08-28T01:43:19.811Z,100122.47
2022-08-28T01:45:53.052Z,100122.94
2022-08-28T01:48:22.399Z,100121.47
2022-08-28T01:50:50.917Z,100123.09
2022-08-28T01:53:20.709Z,100128.41
2022-08-28T01:55:53.635Z,100120.22
2022-08-28T01:58:23.082Z,100126.78
2022-08-28T02:00:53.783Z,100103.03
2022-08-28T02:03:23.818Z,100123.09
2022-08-28T02:05:51.388Z,100122.28
2022-08-28T02:08:18.579Z,100130.84
2022-08-28T02:10:46.415Z,100129.25
2022-08-28T02:13:14.249Z,100125.94
2022-08-28T02:15:43.201Z,100110.06
2022-08-28T02:18:11.054Z,100134.09
2022-08-28T02:20:38.985Z,100120.44
2022-08-28T02:23:06.885Z,100133.13
2022-08-28T02:25:35.526Z,100117.97
2022-08-28T02:28:02.891Z,100128.63
2022-08-28T02:30:32.046Z,100133.47
2022-08-28T02:32:59.476Z,100109.03
2022-08-28T02:35:26.858Z,100124.13
2022-08-28T02:37:55.416Z,100114.72
2022-08-28T02:40:24.071Z,100128.28
2022-08-28T02:42:52.351Z,100137.00
2022-08-28T02:45:20.327Z,100124.75
2022-08-28T02:47:51.782Z,100135.09
2022-08-28T02:50:22.699Z,100138.06
2022-08-28T02:52:51.955Z,100144.69
2022-08-28T02:55:21.437Z,100136.53
2022-08-28T02:57:48.949Z,100134.50
2022-08-28T03:00:20.387Z,100140.66
2022-08-28T03:02:49.796Z,100128.34
2022-08-28T03:05:21.211Z,100141.38
2022-08-28T03:07:49.186Z,100144.19
2022-08-28T03:10:17.406Z,100150.31
2022-08-28T03:12:44.638Z,100143.78
2022-08-28T03:15:12.562Z,100143.00
2022-08-28T03:17:40.272Z,100131.22
2022-08-28T03:20:11.366Z,100148.66
2022-08-28T03:22:59.066Z,100153.59
2022-08-28T03:25:27.301Z,100140.91
2022-08-28T03:27:55.205Z,100141.72
2022-08-28T03:30:23.887Z,100145.94
2022-08-28T03:32:51.670Z,100138.09
2022-08-28T03:35:19.139Z,100150.31
2022-08-28T03:37:46.750Z,100137.69
2022-08-28T03:40:14.955Z,100145.84
2022-08-28T03:42:42.283Z,100145.81
2022-08-28T03:45:18.996Z,100141.31
2022-08-28T03:47:46.830Z,100146.97
2022-08-28T03:50:14.408Z,100141.75
2022-08-28T03:52:41.891Z,100147.78
2022-08-28T03:55:12.251Z,100159.59
2022-08-28T03:57:39.972Z,100132.22
2022-08-28T04:00:11.189Z,100146.09
2022-08-28T04:02:42.677Z,100153.31
2022-08-28T04:05:11.290Z,100154.16
2022-08-28T04:07:39.565Z,100153.34
2022-08-28T04:10:07.528Z,100162.88
2022-08-28T04:12:36.189Z,100151.97
2022-08-28T04:15:07.166Z,100155.28
2022-08-28T04:17:37.068Z,100147.56
2022-08-28T04:20:05.056Z,100156.38
2022-08-28T04:22:33.210Z,100149.41
2022-08-28T04:25:01.325Z,100161.66
2022-08-28T04:27:28.716Z,100157.44
2022-08-28T04:29:56.096Z,100150.50
2022-08-28T04:32:23.494Z,100144.38
2022-08-28T04:34:51.579Z,100146.13
2022-08-28T04:37:19.063Z,100146.22
2022-08-28T04:39:46.296Z,100152.69
2022-08-28T04:42:14.984Z,100151.09
2022-08-28T04:44:42.460Z,100131.44
2022-08-28T04:47:09.684Z,100149.38
2022-08-28T04:49:37.295Z,100140.06
2022-08-28T04:52:05.119Z,100147.03
2022-08-28T04:54:35.979Z,100146.13
2022-08-28T04:57:06.429Z,100138.75
2022-08-28T04:59:33.815Z,100146.13
2022-08-28T05:02:01.691Z,100137.53
2022-08-28T05:04:29.107Z,100139.59
2022-08-28T05:06:56.242Z,100142.00
2022-08-28T05:09:23.461Z,100151.31
2022-08-28T05:11:51.572Z,100134.66
2022-08-28T05:14:20.354Z,100137.97
2022-08-28T05:16:57.889Z,100150.97
2022-08-28T05:19:28.069Z,100142.78
2022-08-28T05:21:55.627Z,100139.00
2022-08-28T05:24:22.879Z,100154.56
2022-08-28T05:26:50.352Z,100142.69
2022-08-28T05:29:18.113Z,100154.94
2022-08-28T05:31:46.420Z,100153.34
2022-08-28T05:34:15.301Z,100157.31
2022-08-28T05:36:42.976Z,100149.09
2022-08-28T05:39:13.905Z,100161.31
2022-08-28T05:41:44.178Z,100158.03
2022-08-28T05:44:15.656Z,100150.38
2022-08-28T05:46:47.786Z,100150.69
2022-08-28T05:49:17.964Z,100147.00
2022-08-28T05:51:46.410Z,100148.94
2022-08-28T05:54:15.056Z,100155.00
2022-08-28T05:56:44.317Z,100158.56
2022-08-28T05:59:13.364Z,100159.78
2022-08-28T06:01:50.964Z,100156.91
2022-08-28T06:04:27.569Z,100154.78
2022-08-28T06:06:55.698Z,100154.38
2022-08-28T06:09:29.592Z,100171.47
2022-08-28T06:11:59.839Z,100152.56
2022-08-28T06:14:27.780Z,100164.75
2022-08-28T06:16:56.639Z,100154.78
2022-08-28T06:19:26.870Z,100165.81
2022-08-28T06:22:01.089Z,100174.06
2022-08-28T06:24:34.692Z,100158.88
2022-08-28T06:27:02.158Z,100155.66
2022-08-28T06:29:29.922Z,100174.41
2022-08-28T06:32:01.137Z,100168.94
2022-08-28T06:34:29.769Z,100174.63
2022-08-28T06:36:56.979Z,100154.53
2022-08-28T06:39:24.624Z,100155.50
2022-08-28T06:41:51.970Z,100173.75
2022-08-28T06:44:21.705Z,100159.84
2022-08-28T06:46:52.198Z,100158.16
2022-08-28T06:49:19.491Z,100154.53
2022-08-28T06:51:46.900Z,100160.72
2022-08-28T06:54:19.772Z,100153.28
2022-08-28T06:56:49.899Z,100138.13
2022-08-28T06:59:17.276Z,100152.31
2022-08-28T07:01:44.559Z,100152.25
2022-08-28T07:04:14.859Z,100151.06
2022-08-28T07:06:47.067Z,100152.84
2022-08-28T07:09:14.830Z,100152.47
2022-08-28T07:11:46.821Z,100159.16
2022-08-28T07:14:14.110Z,100141.91
2022-08-28T07:16:42.263Z,100155.25
2022-08-28T07:19:12.186Z,100147.25
2022-08-28T07:21:42.238Z,100160.50
2022-08-28T07:24:12.632Z,100163.22
2022-08-28T07:26:41.229Z,100163.88
2022-08-28T07:29:10.835Z,100156.75
2022-08-28T07:31:50.848Z,100145.53
2022-08-28T07:34:19.965Z,100151.78
2022-08-28T07:36:48.330Z,100149.38
2022-08-28T07:39:16.261Z,100160.78
2022-08-28T07:41:47.258Z,100149.34
2022-08-28T07:44:33.866Z,100166.78
2022-08-28T07:47:04.442Z,100150.41
2022-08-28T07:49:34.175Z,100158.72
2022-08-28T07:52:02.018Z,100155.69
2022-08-28T07:54:29.378Z,100145.41
2022-08-28T07:56:56.777Z,100159.53
2022-08-28T07:59:24.467Z,100151.59
2022-08-28T08:01:52.383Z,100137.88
2022-08-28T08:04:21.869Z,100159.75
2022-08-28T08:06:54.380Z,100155.41
2022-08-28T08:09:24.498Z,100157.75
2022-08-28T08:11:51.953Z,100146.13
2022-08-28T08:14:19.241Z,100145.50
2022-08-28T08:16:48.139Z,100143.22
2022-08-28T08:19:16.816Z,100152.84
2022-08-28T08:21:46.665Z,100147.75
2022-08-28T08:24:21.582Z,100157.88
2022-08-28T08:26:58.889Z,100158.69
2022-08-28T08:29:30.033Z,100157.34
2022-08-28T08:31:58.972Z,100159.53
2022-08-28T08:34:26.417Z,100154.88
2022-08-28T08:36:54.405Z,100146.19
2022-08-28T08:39:21.603Z,100146.09
2022-08-28T08:41:53.388Z,100153.16
2022-08-28T08:44:34.022Z,100153.91
2022-08-28T08:47:20.036Z,100156.69
2022-08-28T08:49:58.773Z,100150.84
2022-08-28T08:52:51.386Z,100153.97
2022-08-28T08:55:31.605Z,100137.19
2022-08-28T08:58:08.195Z,100148.84
2022-08-28T09:00:52.502Z,100149.13
2022-08-28T09:03:44.307Z,100143.38
2022-08-28T09:06:26.004Z,100143.13
2022-08-28T09:08:59.343Z,100151.31
2022-08-28T09:12:08.366Z,100146.25
2022-08-28T09:14:54.009Z,100156.72
2022-08-28T09:17:27.787Z,100144.84
2022-08-28T09:19:55.313Z,100141.88
2022-08-28T09:22:22.974Z,100141.78
2022-08-28T09:24:50.455Z,100156.03
2022-08-28T09:27:26.951Z,100156.19
2022-08-28T09:30:07.220Z,100156.91
2022-08-28T09:32:56.535Z,100163.78
2022-08-28T09:35:29.934Z,100152.84
2022-08-28T09:38:18.406Z,100152.28
2022-08-28T09:41:04.529Z,100151.47
2022-08-28T09:43:33.780Z,100151.75
2022-08-28T09:46:08.335Z,100159.06
2022-08-28T09:48:47.136Z,100159.66
2022-08-28T09:51:29.776Z,100139.47
2022-08-28T09:54:02.932Z,100150.47
2022-08-28T09:56:40.276Z,100146.22
2022-08-28T09:59:33.930Z,100158.16
2022-08-28T10:02:43.034Z,100157.97
2022-08-28T10:05:18.785Z,100145.25
2022-08-28T10:08:04.727Z,100149.78
2022-08-28T10:10:37.336Z,100140.84
2022-08-28T10:13:18.194Z,100135.66
2022-08-28T10:16:04.150Z,100144.69
2022-08-28T10:18:44.567Z,100135.56
2022-08-28T10:21:24.404Z,100130.94
2022-08-28T10:24:26.469Z,100146.53
2022-08-28T10:27:12.176Z,100127.47
2022-08-28T10:30:08.892Z,100132.31
2022-08-28T10:32:56.863Z,100132.09
2022-08-28T10:35:40.297Z,100125.84
2022-08-28T10:38:18.197Z,100128.53
2022-08-28T10:41:05.064Z,100115.22
2022-08-28T10:43:38.420Z,100123.59
2022-08-28T10:46:13.714Z,100116.47
2022-08-28T10:48:46.610Z,100118.53
2022-08-28T10:51:34.829Z,100114.72
2022-08-28T10:54:19.408Z,100114.44
2022-08-28T10:56:56.648Z,100118.59
2022-08-28T10:59:28.249Z,100110.25
2022-08-28T11:01:56.905Z,100092.09
2022-08-28T11:04:25.856Z,100089.16
2022-08-28T11:07:03.825Z,100108.84
2022-08-28T11:09:35.549Z,100093.63
2022-08-28T11:12:10.313Z,100107.53
2022-08-28T11:14:48.412Z,100102.81
2022-08-28T11:17:23.011Z,100096.34
2022-08-28T11:20:22.916Z,100086.03
2022-08-28T11:22:58.088Z,100094.25
2022-08-28T11:25:59.907Z,100093.59
2022-08-28T11:28:36.726Z,100086.84
2022-08-28T11:31:06.957Z,100083.59
2022-08-28T11:33:44.907Z,100084.63
2022-08-28T11:36:32.861Z,100092.50
2022-08-28T11:39:21.000Z,100090.81
2022-08-28T11:42:14.028Z,100086.44
2022-08-28T11:44:46.115Z,100078.50
2022-08-28T11:47:32.097Z,100080.94
2022-08-28T11:50:33.748Z,100088.53
2022-08-28T11:53:18.760Z,100077.75
2022-08-28T11:56:07.368Z,100076.34
2022-08-28T11:58:54.702Z,100080.03
2022-08-28T12:01:32.314Z,100086.50
2022-08-28T12:04:08.096Z,100071.34
2022-08-28T12:06:44.793Z,100072.97
2022-08-28T12:09:31.726Z,100059.91
2022-08-28T12:12:05.232Z,100062.63
2022-08-28T12:14:38.494Z,100067.06
2022-08-28T12:17:06.120Z,100063.25
2022-08-28T12:19:52.553Z,100069.78
2022-08-28T12:22:39.739Z,100067.22
2022-08-28T12:25:18.694Z,100067.56
2022-08-28T12:27:46.182Z,100063.06
2022-08-28T12:30:28.609Z,100071.25
2022-08-28T12:33:03.143Z,100068.25
2022-08-28T12:35:30.601Z,100062.09
2022-08-28T12:38:02.236Z,100072.31
2022-08-28T12:40:41.848Z,100073.53
2022-08-28T12:43:15.238Z,100063.69
2022-08-28T12:45:45.623Z,100061.38
2022-08-28T12:48:18.766Z,100065.50
2022-08-28T12:50:46.247Z,100066.78
2022-08-28T12:53:16.847Z,100068.53
2022-08-28T12:55:46.505Z,100054.06
2022-08-28T12:58:28.099Z,100068.59
2022-08-28T13:01:06.877Z,100074.72
2022-08-28T13:03:34.305Z,100060.50
2022-08-28T13:06:07.786Z,100075.34
2022-08-28T13:08:36.989Z,100059.91
2022-08-28T13:11:05.056Z,100055.25
2022-08-28T13:13:45.584Z,100065.09
2022-08-28T13:16:35.770Z,100059.56
2022-08-28T13:19:06.754Z,100053.16
2022-08-28T13:21:35.207Z,100054.44
2022-08-28T13:24:23.039Z,100047.22
2022-08-28T13:27:15.894Z,100048.66
2022-08-28T13:30:04.330Z,100045.88
2022-08-28T13:32:34.481Z,100039.28
2022-08-28T13:35:21.921Z,100034.63
2022-08-28T13:37:50.762Z,100035.88
2022-08-28T13:43:16.656Z,100017.63
2022-08-28T13:45:46.434Z,100017.44
2022-08-28T13:48:17.029Z,100005.47
2022-08-28T13:50:49.995Z,100013.56
2022-08-28T13:53:20.452Z,100013.22
2022-08-28T13:55:51.344Z,100007.38
2022-08-28T13:58:18.820Z,100017.66
2022-08-28T14:00:48.628Z,100031.34
2022-08-28T14:03:35.354Z,100033.28
2022-08-28T14:06:14.315Z,100036.84
2022-08-28T14:08:44.297Z,100038.13
2022-08-28T14:11:14.247Z,100032.00
2022-08-28T14:13:47.331Z,100045.41
2022-08-28T14:16:25.844Z,100038.97
2022-08-28T14:18:53.532Z,100038.00
2022-08-28T14:21:22.568Z,100038.66
2022-08-28T14:23:50.329Z,100031.41
2022-08-28T14:26:17.596Z,100030.72
2022-08-28T14:28:45.452Z,100027.38
2022-08-28T14:31:14.748Z,100023.59
2022-08-28T14:33:45.384Z,100035.72
2022-08-28T14:36:24.060Z,100026.69
2022-08-28T14:38:54.291Z,100035.09
2022-08-28T14:41:23.840Z,100021.56
2022-08-28T14:43:51.253Z,100014.44
2022-08-28T14:46:24.407Z,100017.66
2022-08-28T14:48:52.751Z,100008.97
2022-08-28T14:51:19.902Z,100013.50
2022-08-28T14:53:47.168Z,100011.06
2022-08-28T14:56:14.724Z,100008.50
2022-08-28T14:58:41.995Z,99998.81
2022-08-28T15:01:09.443Z,99993.50
2022-08-28T15:03:37.934Z,99997.19
2022-08-28T15:06:08.706Z,100006.69
2022-08-28T15:08:37.411Z,99994.78
2022-08-28T15:11:10.332Z,99986.09
2022-08-28T15:13:38.292Z,99980.59
2022-08-28T15:16:15.744Z,99977.00
2022-08-28T15:18:45.769Z,99979.47
2022-08-28T15:21:28.190Z,99976.66
2022-08-28T15:24:00.016Z,99977.94
2022-08-28T15:26:28.108Z,99968.25
2022-08-28T15:29:02.473Z,99969.88
2022-08-28T15:31:31.710Z,99970.03
2022-08-28T15:34:03.024Z,99966.00
2022-08-28T15:36:30.351Z,99969.69
2022-08-28T15:39:18.627Z,99961.63
2022-08-28T15:41:47.128Z,99970.31
2022-08-28T15:44:15.134Z,99968.47
2022-08-28T15:46:49.446Z,99979.72
2022-08-28T15:49:18.568Z,99985.16
2022-08-28T15:51:45.821Z,99983.84
2022-08-28T15:54:13.403Z,99992.19
2022-08-28T15:56:41.791Z,99971.75
2022-08-28T15:59:10.805Z,99997.28
2022-08-28T16:01:38.821Z,99992.44
2022-08-28T16:04:07.075Z,99995.88
2022-08-28T16:06:35.675Z,99996.81
2022-08-28T16:09:05.310Z,100002.94
2022-08-28T16:11:33.931Z,99997.44
2022-08-28T16:14:06.678Z,99993.41
2022-08-28T16:16:34.645Z,100002.53
2022-08-28T16:19:02.202Z,99996.41
2022-08-28T16:21:29.764Z,100000.25
2022-08-28T16:23:56.978Z,99984.22
2022-08-28T16:26:24.619Z,100008.03
2022-08-28T16:28:53.454Z,99989.31
2022-08-28T16:31:21.385Z,100005.88
2022-08-28T16:33:49.932Z,100005.97
2022-08-28T16:36:18.583Z,100000.78
2022-08-28T16:38:48.079Z,100006.09
2022-08-28T16:41:23.752Z,100004.47
2022-08-28T16:43:55.274Z,100000.13
2022-08-28T16:46:26.882Z,100010.53
2022-08-28T16:48:54.829Z,100011.44
2022-08-28T16:51:22.732Z,100013.16
2022-08-28T16:53:49.975Z,100005.75
2022-08-28T16:56:18.237Z,100012.00
2022-08-28T16:58:46.226Z,100012.13
2022-08-28T17:01:14.418Z,100004.03
2022-08-28T17:03:42.215Z,100005.81
2022-08-28T17:06:20.286Z,100007.88
2022-08-28T17:08:48.292Z,99987.53
2022-08-28T17:11:16.889Z,100001.41
2022-08-28T17:13:44.547Z,100007.19
2022-08-28T17:16:13.248Z,100006.50
2022-08-28T17:18:48.163Z,100012.25
2022-08-28T17:21:38.853Z,100005.25
2022-08-28T17:24:07.023Z,100010.22
2022-08-28T17:26:34.378Z,100005.34
2022-08-28T17:29:03.036Z,100001.31
2022-08-28T17:31:30.391Z,100010.22
2022-08-28T17:33:57.822Z,100009.72
2022-08-28T17:36:33.282Z,100020.38
2022-08-28T17:39:08.283Z,100023.00
2022-08-28T17:41:35.823Z,100014.81
2022-08-28T17:44:03.561Z,100018.38
2022-08-28T17:46:36.750Z,100016.06
2022-08-28T17:49:06.921Z,100019.75
2022-08-28T17:51:43.314Z,100014.66
2022-08-28T17:54:14.018Z,100033.47
2022-08-28T17:56:42.675Z,100027.47
2022-08-28T17:59:12.095Z,100017.53
2022-08-28T18:01:39.801Z,100003.75
2022-08-28T18:04:07.271Z,100015.91
2022-08-28T18:06:34.928Z,100028.97
2022-08-28T18:09:02.531Z,100025.03
2022-08-28T18:11:29.865Z,100031.25
2022-08-28T18:13:57.538Z,100026.84
2022-08-28T18:16:30.395Z,100028.47
2022-08-28T18:19:00.110Z,100031.91
2022-08-28T18:21:31.845Z,100024.66
2022-08-28T18:23:59.096Z,100019.78
2022-08-28T18:26:26.519Z,100020.16
2022-08-28T18:28:53.957Z,100019.78
2022-08-28T18:31:21.126Z,100022.56
2022-08-28T18:33:48.360Z,100027.75
2022-08-28T18:36:16.852Z,100029.25
2022-08-28T18:38:45.154Z,100023.50
2022-08-28T18:41:12.544Z,100019.16
2022-08-28T18:43:42.204Z,100027.81
2022-08-28T18:46:10.360Z,100020.06
2022-08-28T18:48:38.266Z,100024.09
2022-08-28T18:51:07.918Z,100031.66
2022-08-28T18:53:35.687Z,100032.31
2022-08-28T18:56:03.896Z,100032.44
2022-08-28T18:58:33.045Z,100037.13
2022-08-28T19:01:02.355Z,100036.94
2022-08-28T19:03:30.233Z,100034.25
2022-08-28T19:05:59.014Z,100032.81
2022-08-28T19:08:27.267Z,100029.66
2022-08-28T19:10:54.681Z,100035.19
2022-08-28T19:13:22.221Z,100034.47
2022-08-28T19:15:53.326Z,100035.00
2022-08-28T19:18:20.776Z,100032.66
2022-08-28T19:20:48.428Z,100047.69
2022-08-28T19:23:17.758Z,100044.97
2022-08-28T19:25:46.200Z,100045.88
2022-08-28T19:28:14.034Z,100035.66
2022-08-28T19:30:42.295Z,100037.44
2022-08-28T19:33:12.935Z,100038.34
2022-08-28T19:35:41.107Z,100041.03
2022-08-28T19:38:08.667Z,100022.16
2022-08-28T19:40:36.140Z,100047.56
2022-08-28T19:43:03.304Z,100041.88
2022-08-28T19:45:33.232Z,100051.00
2022-08-28T19:48:00.895Z,100042.50
2022-08-28T19:50:28.122Z,100028.00
2022-08-28T19:52:55.315Z,100033.69
2022-08-28T19:55:26.190Z,100054.09
2022-08-28T19:57:54.476Z,100043.75
2022-08-28T20:00:26.015Z,100053.50
2022-08-28T20:02:53.467Z,100050.50
2022-08-28T20:05:22.038Z,100053.44
2022-08-28T20:07:50.273Z,100043.16
2022-08-28T20:10:18.336Z,100033.88
2022-08-28T20:12:48.640Z,100051.88
2022-08-28T20:15:19.438Z,100049.63
2022-08-28T20:17:49.872Z,100049.00
2022-08-28T20:20:20.078Z,100056.44
2022-08-28T20:22:47.479Z,100051.75
2022-08-28T20:25:18.207Z,100055.81
2022-08-28T20:27:45.662Z,100044.53
2022-08-28T20:30:13.285Z,100051.22
2022-08-28T20:32:41.387Z,100058.59
2022-08-28T20:35:12.039Z,100057.88
2022-08-28T20:37:42.644Z,100060.38
2022-08-28T20:40:14.806Z,100062.06
2022-08-28T20:42:42.253Z,100044.28
2022-08-28T20:45:10.239Z,100063.75
2022-08-28T20:47:37.606Z,100057.34
2022-08-28T20:50:05.695Z,100072.81
2022-08-28T20:52:33.436Z,100064.63
2022-08-28T20:55:00.738Z,100065.09
2022-08-28T20:57:30.263Z,100059.47
2022-08-28T20:59:58.753Z,100070.63
2022-08-28T21:02:29.340Z,100071.94
2022-08-28T21:04:56.845Z,100069.88
2022-08-28T21:07:25.357Z,100082.56
2022-08-28T21:10:05.589Z,100078.06
2022-08-28T21:12:39.226Z,100084.69
2022-08-28T21:15:10.073Z,100073.34
2022-08-28T21:17:37.611Z,100081.50
2022-08-28T21:20:10.185Z,100078.28
2022-08-28T21:22:40.103Z,100082.38
2022-08-28T21:25:10.603Z,100076.66
2022-08-28T21:27:38.178Z,100082.25
2022-08-28T21:30:07.851Z,100083.41
2022-08-28T21:32:36.287Z,100086.28
2022-08-28T21:35:05.363Z,100077.16
2022-08-28T21:37:32.997Z,100077.78
2022-08-28T21:40:01.025Z,100077.59
2022-08-28T21:42:29.220Z,100076.13
2022-08-28T21:44:56.352Z,100079.53
2022-08-28T21:47:24.666Z,100081.66
2022-08-28T21:49:54.445Z,100080.44
2022-08-28T21:52:24.444Z,100081.28
2022-08-28T21:55:08.248Z,100087.78
2022-08-28T21:57:35.652Z,100081.75
2022-08-28T22:00:05.991Z,100080.69
2022-08-28T22:02:34.028Z,100079.06
2022-08-28T22:05:01.330Z,100082.31
2022-08-28T22:07:31.006Z,100074.91
2022-08-28T22:09:58.353Z,100078.59
2022-08-28T22:12:26.024Z,100090.50
2022-08-28T22:14:54.383Z,100075.06
2022-08-28T22:17:21.882Z,100079.13
2022-08-28T22:19:49.273Z,100070.13
2022-08-28T22:22:35.410Z,100096.25
2022-08-28T22:25:03.499Z,100092.72
2022-08-28T22:27:34.900Z,100092.53
2022-08-28T22:30:02.282Z,100086.66
2022-08-28T22:32:30.674Z,100090.09
2022-08-28T22:34:58.013Z,100097.78
2022-08-28T22:37:25.997Z,100099.50
2022-08-28T22:39:53.580Z,100095.72
2022-08-28T22:42:21.029Z,100100.75
2022-08-28T22:44:48.255Z,100100.53
2022-08-28T22:47:15.627Z,100111.72
2022-08-28T22:49:46.158Z,100108.31
2022-08-28T22:52:13.443Z,100106.84
2022-08-28T22:54:40.647Z,100105.00
2022-08-28T22:57:09.066Z,100114.06
2022-08-28T22:59:36.336Z,100109.28
2022-08-28T23:02:04.039Z,100112.38
2022-08-28T23:04:31.695Z,100111.28
2022-08-28T23:06:59.003Z,100114.22
2022-08-28T23:09:26.548Z,100118.13
2022-08-28T23:11:53.925Z,100120.31
2022-08-28T23:14:21.219Z,100121.34
2022-08-28T23:16:49.240Z,100128.53
2022-08-28T23:19:19.826Z,100130.38
2022-08-28T23:21:47.752Z,100129.19
2022-08-28T23:24:16.728Z,100127.22
2022-08-28T23:26:45.907Z,100133.50
2022-08-28T23:29:14.018Z,100126.66
2022-08-28T23:31:41.378Z,100125.88
2022-08-28T23:34:08.883Z,100131.22
2022-08-28T23:36:36.930Z,100116.97
2022-08-28T23:39:07.127Z,100114.38
2022-08-28T23:41:34.928Z,100111.88
2022-08-28T23:44:08.282Z,100111.00
2022-08-28T23:46:36.968Z,100115.03
2022-08-28T23:49:09.998Z,100115.75
2022-08-28T23:51:37.680Z,100114.16
2022-08-28T23:54:05.230Z,100110.63
2022-08-28T23:56:33.916Z,100107.38
2022-08-28T23:59:01.303Z,100100.44
